createdAt,value
2022-12-23T00:00:03.226Z,26.10
2022-12-23T00:01:03.227Z,26.10
2022-12-23T00:02:03.359Z,26.12
2022-12-23T00:03:03.516Z,26.10
2022-12-23T00:04:03.331Z,26.05
2022-12-23T00:05:03.231Z,26.12
2022-12-23T00:06:03.241Z,26.05
2022-12-23T00:07:03.214Z,26.02
2022-12-23T00:08:03.216Z,26.10
2022-12-23T00:09:03.209Z,26.12
2022-12-23T00:10:03.223Z,26.12
2022-12-23T00:11:03.310Z,26.13
2022-12-23T00:12:03.227Z,26.15
2022-12-23T00:13:03.207Z,26.13
2022-12-23T00:14:03.216Z,26.10
2022-12-23T00:15:03.214Z,26.13
2022-12-23T00:16:03.330Z,26.12
2022-12-23T00:17:09.339Z,26.10
2022-12-23T00:18:03.215Z,26.06
2022-12-23T00:19:03.202Z,25.99
2022-12-23T00:20:03.222Z,26.09
2022-12-23T00:21:08.293Z,26.07
2022-12-23T00:22:03.236Z,26.12
2022-12-23T00:23:03.202Z,26.13
2022-12-23T00:24:03.208Z,26.05
2022-12-23T00:25:03.206Z,26.09
2022-12-23T00:26:03.208Z,26.12
2022-12-23T00:27:03.199Z,26.15
2022-12-23T00:28:03.206Z,26.15
2022-12-23T00:29:03.200Z,26.02
2022-12-23T00:30:03.224Z,26.06
2022-12-23T00:31:03.225Z,25.99
2022-12-23T00:32:03.255Z,26.13
2022-12-23T00:33:03.204Z,26.07
2022-12-23T00:34:03.207Z,26.07
2022-12-23T00:35:03.193Z,26.06
2022-12-23T00:36:03.289Z,26.09
2022-12-23T00:37:03.197Z,26.10
2022-12-23T00:38:03.222Z,26.10
2022-12-23T00:39:03.192Z,26.01
2022-12-23T00:40:06.731Z,26.09
2022-12-23T00:41:03.199Z,26.07
2022-12-23T00:42:03.216Z,26.09
2022-12-23T00:43:03.192Z,26.06
2022-12-23T00:44:03.198Z,26.06
2022-12-23T00:45:03.194Z,26.10
2022-12-23T00:46:03.226Z,26.10
2022-12-23T00:47:03.191Z,26.13
2022-12-23T00:48:03.198Z,26.01
2022-12-23T00:49:03.185Z,26.06
2022-12-23T00:50:03.215Z,26.02
2022-12-23T00:51:03.181Z,26.10
2022-12-23T00:52:03.189Z,26.07
2022-12-23T00:53:03.184Z,26.02
2022-12-23T00:54:03.234Z,25.98
2022-12-23T00:55:03.180Z,26.12
2022-12-23T00:56:03.203Z,26.05
2022-12-23T00:57:03.197Z,26.09
2022-12-23T00:58:03.189Z,26.10
2022-12-23T00:59:03.202Z,26.02
2022-12-23T01:00:03.183Z,26.01
2022-12-23T01:01:03.236Z,26.09
2022-12-23T01:02:03.445Z,26.09
2022-12-23T01:03:03.265Z,26.06
2022-12-23T01:04:03.195Z,26.05
2022-12-23T01:05:03.173Z,26.06
2022-12-23T01:06:03.181Z,26.09
2022-12-23T01:07:03.171Z,26.09
2022-12-23T01:08:03.179Z,26.01
2022-12-23T01:09:03.170Z,25.99
2022-12-23T01:10:03.209Z,26.13
2022-12-23T01:11:03.168Z,26.07
2022-12-23T01:12:03.179Z,26.10
2022-12-23T01:13:03.168Z,26.09
2022-12-23T01:14:03.180Z,26.01
2022-12-23T01:15:03.171Z,26.09
2022-12-23T01:16:03.172Z,26.12
2022-12-23T01:17:03.287Z,26.13
2022-12-23T01:18:03.172Z,26.06
2022-12-23T01:19:03.165Z,26.09
2022-12-23T01:20:03.179Z,26.15
2022-12-23T01:21:03.160Z,26.10
2022-12-23T01:22:03.171Z,26.02
2022-12-23T01:23:03.160Z,26.10
2022-12-23T01:24:03.165Z,26.09
2022-12-23T01:25:03.162Z,26.06
2022-12-23T01:26:03.190Z,26.05
2022-12-23T01:27:03.158Z,25.99
2022-12-23T01:28:03.162Z,26.06
2022-12-23T01:29:03.156Z,25.98
2022-12-23T01:30:03.162Z,26.06
2022-12-23T01:31:03.153Z,26.06
2022-12-23T01:32:03.241Z,25.98
2022-12-23T01:33:03.153Z,26.12
2022-12-23T01:34:03.163Z,25.98
2022-12-23T01:35:03.159Z,26.07
2022-12-23T01:36:03.171Z,26.09
2022-12-23T01:37:03.205Z,26.01
2022-12-23T01:38:03.159Z,26.13
2022-12-23T01:39:03.148Z,26.09
2022-12-23T01:40:03.170Z,26.06
2022-12-23T01:41:03.146Z,26.01
2022-12-23T01:42:03.176Z,26.13
2022-12-23T01:43:03.157Z,26.01
2022-12-23T01:44:03.153Z,26.01
2022-12-23T01:45:03.166Z,26.06
2022-12-23T01:46:03.258Z,25.98
2022-12-23T01:47:03.142Z,26.09
2022-12-23T01:48:03.160Z,26.05
2022-12-23T01:49:03.143Z,26.05
2022-12-23T01:50:03.154Z,26.13
2022-12-23T01:51:03.141Z,26.09
2022-12-23T01:52:03.150Z,26.01
2022-12-23T01:53:07.638Z,26.06
2022-12-23T01:54:03.147Z,26.07
2022-12-23T01:55:03.140Z,26.12
2022-12-23T01:56:03.145Z,25.99
2022-12-23T01:57:03.145Z,25.98
2022-12-23T01:58:03.199Z,26.02
2022-12-23T01:59:03.138Z,25.99
2022-12-23T02:00:03.157Z,26.01
2022-12-23T02:01:03.185Z,25.97
2022-12-23T02:02:03.291Z,25.99
2022-12-23T02:03:03.214Z,26.01
2022-12-23T02:04:03.148Z,26.01
2022-12-23T02:05:03.142Z,25.97
2022-12-23T02:06:03.141Z,26.05
2022-12-23T02:07:03.131Z,26.07
2022-12-23T02:08:03.138Z,26.02
2022-12-23T02:09:03.133Z,26.06
2022-12-23T02:10:03.144Z,26.05
2022-12-23T02:11:03.127Z,26.01
2022-12-23T02:12:03.135Z,26.02
2022-12-23T02:13:03.127Z,25.99
2022-12-23T02:14:03.162Z,25.98
2022-12-23T02:15:03.131Z,26.01
2022-12-23T02:16:03.132Z,26.02
2022-12-23T02:17:03.167Z,25.98
2022-12-23T02:18:03.141Z,26.01
2022-12-23T02:19:03.134Z,25.98
2022-12-23T02:20:03.147Z,25.98
2022-12-23T02:21:03.123Z,25.99
2022-12-23T02:22:03.133Z,25.99
2022-12-23T02:23:03.120Z,25.99
2022-12-23T02:24:03.146Z,25.97
2022-12-23T02:25:03.123Z,26.02
2022-12-23T02:26:03.124Z,25.98
2022-12-23T02:27:03.114Z,26.06
2022-12-23T02:28:03.122Z,26.05
2022-12-23T02:29:03.120Z,26.01
2022-12-23T02:30:03.153Z,26.09
2022-12-23T02:31:03.153Z,25.98
2022-12-23T02:32:03.129Z,25.95
2022-12-23T02:33:03.125Z,26.07
2022-12-23T02:34:03.123Z,25.97
2022-12-23T02:35:03.108Z,26.01
2022-12-23T02:36:03.115Z,26.07
2022-12-23T02:37:03.105Z,25.98
2022-12-23T02:38:03.121Z,25.99
2022-12-23T02:39:03.126Z,25.95
2022-12-23T02:40:03.130Z,25.98
2022-12-23T02:41:03.112Z,25.95
2022-12-23T02:42:03.116Z,25.97
2022-12-23T02:43:03.102Z,26.01
2022-12-23T02:44:03.108Z,26.01
2022-12-23T02:45:03.111Z,25.97
2022-12-23T02:46:03.184Z,25.98
2022-12-23T02:47:03.100Z,25.98
2022-12-23T02:48:03.111Z,26.01
2022-12-23T02:49:03.104Z,26.05
2022-12-23T02:50:03.105Z,26.02
2022-12-23T02:51:03.096Z,25.95
2022-12-23T02:52:03.106Z,25.95
2022-12-23T02:53:03.095Z,25.98
2022-12-23T02:54:03.107Z,25.98
2022-12-23T02:55:03.091Z,25.98
2022-12-23T02:56:03.100Z,25.95
2022-12-23T02:57:03.095Z,25.97
2022-12-23T02:58:03.103Z,26.02
2022-12-23T02:59:03.101Z,25.97
2022-12-23T03:00:03.107Z,25.99
2022-12-23T03:01:03.199Z,26.05
2022-12-23T03:02:03.338Z,25.97
2022-12-23T03:03:03.271Z,25.99
2022-12-23T03:04:03.146Z,25.97
2022-12-23T03:05:03.109Z,25.98
2022-12-23T03:06:03.094Z,25.97
2022-12-23T03:07:07.689Z,25.94
2022-12-23T03:08:03.094Z,26.01
2022-12-23T03:09:03.088Z,25.97
2022-12-23T03:10:03.092Z,26.01
2022-12-23T03:11:03.090Z,26.01
2022-12-23T03:12:03.094Z,26.02
2022-12-23T03:13:03.090Z,25.97
2022-12-23T03:14:03.090Z,25.99
2022-12-23T03:15:03.080Z,26.13
2022-12-23T03:16:03.229Z,25.97
2022-12-23T03:17:03.080Z,25.97
2022-12-23T03:18:03.120Z,25.98
2022-12-23T03:19:03.083Z,25.97
2022-12-23T03:20:03.088Z,25.98
2022-12-23T03:21:03.077Z,26.01
2022-12-23T03:22:03.092Z,25.99
2022-12-23T03:23:03.077Z,25.97
2022-12-23T03:24:03.085Z,25.97
2022-12-23T03:25:03.098Z,25.99
2022-12-23T03:26:03.086Z,25.97
2022-12-23T03:27:03.072Z,26.01
2022-12-23T03:28:03.083Z,25.95
2022-12-23T03:29:03.071Z,25.99
2022-12-23T03:30:03.103Z,25.98
2022-12-23T03:31:03.125Z,25.98
2022-12-23T03:32:03.076Z,25.98
2022-12-23T03:33:03.076Z,26.02
2022-12-23T03:34:03.109Z,26.02
2022-12-23T03:35:03.082Z,26.01
2022-12-23T03:36:03.075Z,25.99
2022-12-23T03:37:03.066Z,26.06
2022-12-23T03:38:03.081Z,26.05
2022-12-23T03:39:03.064Z,26.07
2022-12-23T03:40:03.075Z,26.05
2022-12-23T03:41:03.062Z,25.98
2022-12-23T03:42:03.077Z,25.95
2022-12-23T03:43:03.061Z,25.98
2022-12-23T03:44:03.087Z,25.98
2022-12-23T03:45:37.164Z,26.09
2022-12-23T03:46:03.228Z,25.95
2022-12-23T03:47:03.076Z,25.98
2022-12-23T03:48:03.064Z,25.98
2022-12-23T03:49:03.059Z,25.98
2022-12-23T03:50:03.089Z,26.07
2022-12-23T03:51:03.065Z,25.98
2022-12-23T03:52:03.061Z,26.02
2022-12-23T03:53:03.052Z,25.99
2022-12-23T03:54:03.060Z,25.98
2022-12-23T03:55:03.051Z,26.09
2022-12-23T03:56:03.058Z,26.01
2022-12-23T03:57:03.099Z,26.02
2022-12-23T03:58:03.071Z,26.02
2022-12-23T03:59:03.049Z,25.98
2022-12-23T04:00:03.066Z,26.05
2022-12-23T04:01:03.051Z,26.02
2022-12-23T04:02:03.263Z,25.92
2022-12-23T04:03:03.141Z,26.01
2022-12-23T04:04:03.120Z,25.98
2022-12-23T04:05:03.056Z,25.98
2022-12-23T04:06:03.076Z,25.92
2022-12-23T04:07:03.055Z,25.99
2022-12-23T04:08:03.045Z,26.01
2022-12-23T04:09:03.068Z,25.99
2022-12-23T04:10:03.042Z,25.98
2022-12-23T04:11:03.066Z,25.97
2022-12-23T04:12:03.039Z,26.06
2022-12-23T04:13:03.048Z,26.05
2022-12-23T04:14:03.040Z,25.99
2022-12-23T04:15:06.176Z,25.99
2022-12-23T04:16:03.161Z,26.07
2022-12-23T04:17:03.047Z,25.98
2022-12-23T04:18:03.039Z,25.95
2022-12-23T04:19:03.040Z,26.02
2022-12-23T04:20:03.039Z,25.98
2022-12-23T04:21:03.051Z,25.98
2022-12-23T04:22:03.066Z,25.99
2022-12-23T04:23:03.050Z,26.01
2022-12-23T04:24:03.046Z,25.99
2022-12-23T04:25:03.034Z,25.98
2022-12-23T04:26:03.059Z,25.98
2022-12-23T04:27:03.036Z,25.97
2022-12-23T04:28:03.028Z,25.98
2022-12-23T04:29:03.037Z,25.99
2022-12-23T04:30:03.040Z,26.02
2022-12-23T04:31:03.146Z,25.98
2022-12-23T04:32:03.027Z,26.02
2022-12-23T04:33:03.050Z,25.97
2022-12-23T04:34:03.031Z,26.01
2022-12-23T04:35:03.039Z,25.99
2022-12-23T04:36:03.031Z,25.95
2022-12-23T04:37:03.051Z,25.99
2022-12-23T04:38:03.049Z,26.10
2022-12-23T04:39:03.032Z,25.99
2022-12-23T04:40:03.034Z,26.05
2022-12-23T04:41:03.028Z,25.99
2022-12-23T04:42:03.028Z,26.01
2022-12-23T04:43:03.030Z,26.02
2022-12-23T04:44:03.017Z,25.97
2022-12-23T04:45:03.033Z,26.01
2022-12-23T04:46:03.029Z,26.02
2022-12-23T04:47:03.180Z,26.09
2022-12-23T04:48:03.023Z,26.06
2022-12-23T04:49:03.041Z,26.05
2022-12-23T04:50:03.020Z,25.97
2022-12-23T04:51:03.060Z,26.06
2022-12-23T04:52:03.017Z,26.06
2022-12-23T04:53:03.025Z,25.95
2022-12-23T04:54:03.070Z,25.98
2022-12-23T04:55:03.027Z,25.98
2022-12-23T04:56:03.011Z,25.98
2022-12-23T04:57:03.019Z,25.98
2022-12-23T04:58:03.010Z,26.05
2022-12-23T04:59:03.014Z,26.06
2022-12-23T05:00:03.008Z,26.09
2022-12-23T05:01:03.135Z,26.05
2022-12-23T05:02:03.339Z,25.98
2022-12-23T05:03:03.175Z,26.09
2022-12-23T05:04:03.010Z,26.01
2022-12-23T05:05:03.029Z,26.01
2022-12-23T05:06:03.004Z,25.98
2022-12-23T05:07:03.006Z,25.99
2022-12-23T05:08:03.020Z,25.99
2022-12-23T05:09:03.009Z,26.05
2022-12-23T05:10:03.020Z,26.07
2022-12-23T05:11:03.005Z,26.05
2022-12-23T05:12:03.000Z,25.97
2022-12-23T05:13:03.003Z,25.98
2022-12-23T05:14:02.997Z,25.97
2022-12-23T05:15:03.027Z,26.05
2022-12-23T05:16:03.047Z,25.98
2022-12-23T05:17:07.428Z,25.98
2022-12-23T05:18:02.996Z,26.05
2022-12-23T05:19:03.009Z,26.02
2022-12-23T05:20:02.992Z,25.95
2022-12-23T05:21:03.004Z,25.98
2022-12-23T05:22:02.994Z,25.98
2022-12-23T05:23:03.006Z,25.98
2022-12-23T05:24:02.992Z,26.10
2022-12-23T05:25:03.007Z,26.02
2022-12-23T05:26:03.039Z,25.95
2022-12-23T05:27:02.994Z,25.95
2022-12-23T05:28:02.989Z,26.05
2022-12-23T05:29:02.994Z,25.98
2022-12-23T05:30:02.992Z,26.06
2022-12-23T05:31:03.016Z,25.95
2022-12-23T05:32:03.050Z,25.97
2022-12-23T05:33:03.044Z,25.99
2022-12-23T05:34:06.665Z,25.98
2022-12-23T05:35:02.992Z,25.97
2022-12-23T05:36:03.010Z,25.99
2022-12-23T05:37:02.991Z,26.09
2022-12-23T05:38:02.988Z,26.09
2022-12-23T05:39:02.988Z,26.06
2022-12-23T05:40:02.997Z,26.09
2022-12-23T05:41:02.986Z,25.97
2022-12-23T05:42:03.006Z,25.95
2022-12-23T05:43:02.988Z,25.99
2022-12-23T05:44:02.976Z,25.97
2022-12-23T05:45:02.992Z,26.05
2022-12-23T05:46:03.053Z,26.05
2022-12-23T05:47:02.979Z,26.05
2022-12-23T05:48:02.991Z,26.01
2022-12-23T05:49:02.995Z,25.98
2022-12-23T05:50:02.973Z,25.99
2022-12-23T05:51:02.975Z,26.02
2022-12-23T05:52:02.970Z,26.09
2022-12-23T05:53:02.975Z,25.98
2022-12-23T05:54:02.987Z,26.06
2022-12-23T05:55:02.980Z,26.05
2022-12-23T05:56:02.971Z,25.99
2022-12-23T05:57:02.987Z,25.99
2022-12-23T05:58:03.045Z,26.05
2022-12-23T05:59:02.969Z,25.97
2022-12-23T06:00:02.975Z,26.01
2022-12-23T06:01:02.986Z,25.97
2022-12-23T06:02:03.161Z,26.02
2022-12-23T06:03:03.287Z,26.02
2022-12-23T06:04:03.130Z,25.91
2022-12-23T06:05:02.973Z,25.99
2022-12-23T06:06:02.957Z,25.98
2022-12-23T06:07:02.963Z,25.92
2022-12-23T06:08:02.961Z,25.95
2022-12-23T06:09:02.963Z,25.91
2022-12-23T06:10:02.961Z,25.91
2022-12-23T06:11:02.959Z,25.92
2022-12-23T06:12:02.961Z,25.90
2022-12-23T06:13:02.966Z,25.94
2022-12-23T06:14:02.980Z,25.87
2022-12-23T06:15:02.958Z,25.91
2022-12-23T06:16:02.973Z,25.92
2022-12-23T06:17:03.053Z,25.92
2022-12-23T06:18:02.957Z,25.91
2022-12-23T06:19:02.952Z,25.90
2022-12-23T06:20:02.942Z,25.94
2022-12-23T06:21:02.955Z,25.88
2022-12-23T06:22:02.943Z,25.92
2022-12-23T06:23:02.958Z,25.94
2022-12-23T06:24:02.941Z,25.94
2022-12-23T06:25:02.951Z,25.88
2022-12-23T06:26:02.940Z,25.92
2022-12-23T06:27:02.959Z,25.92
2022-12-23T06:28:02.935Z,25.91
2022-12-23T06:29:02.952Z,25.91
2022-12-23T06:30:02.966Z,25.91
2022-12-23T06:31:02.942Z,25.94
2022-12-23T06:32:03.012Z,25.92
2022-12-23T06:33:02.974Z,25.91
2022-12-23T06:34:02.935Z,25.90
2022-12-23T06:35:02.941Z,25.90
2022-12-23T06:36:02.931Z,25.88
2022-12-23T06:37:02.938Z,25.95
2022-12-23T06:38:05.443Z,25.94
2022-12-23T06:39:02.939Z,25.94
2022-12-23T06:40:02.935Z,25.88
2022-12-23T06:41:02.939Z,25.94
2022-12-23T06:42:02.946Z,25.91
2022-12-23T06:43:02.933Z,25.91
2022-12-23T06:44:02.923Z,25.90
2022-12-23T06:45:02.945Z,25.92
2022-12-23T06:46:03.132Z,25.92
2022-12-23T06:47:02.929Z,25.94
2022-12-23T06:48:02.922Z,25.91
2022-12-23T06:49:07.533Z,25.90
2022-12-23T06:50:02.928Z,25.92
2022-12-23T06:51:02.926Z,25.92
2022-12-23T06:52:02.919Z,25.85
2022-12-23T06:53:02.936Z,25.92
2022-12-23T06:54:02.917Z,25.92
2022-12-23T06:55:02.923Z,25.94
2022-12-23T06:56:02.919Z,25.95
2022-12-23T06:57:02.924Z,25.91
2022-12-23T06:58:02.928Z,25.94
2022-12-23T06:59:02.936Z,25.94
2022-12-23T07:00:02.914Z,25.90
2022-12-23T07:01:02.959Z,25.94
2022-12-23T07:02:03.153Z,25.95
2022-12-23T07:03:03.025Z,25.94
2022-12-23T07:04:02.921Z,25.92
2022-12-23T07:05:02.918Z,25.95
2022-12-23T07:06:02.910Z,25.92
2022-12-23T07:07:02.923Z,25.92
2022-12-23T07:08:02.905Z,25.91
2022-12-23T07:09:02.946Z,25.90
2022-12-23T07:10:02.907Z,25.92
2022-12-23T07:11:02.910Z,25.92
2022-12-23T07:12:02.903Z,25.92
2022-12-23T07:13:02.925Z,25.91
2022-12-23T07:14:02.900Z,25.90
2022-12-23T07:15:02.913Z,25.91
2022-12-23T07:16:02.907Z,25.98
2022-12-23T07:17:02.982Z,25.91
2022-12-23T07:18:02.976Z,25.91
2022-12-23T07:19:02.904Z,25.90
2022-12-23T07:20:02.915Z,25.91
2022-12-23T07:21:02.931Z,25.88
2022-12-23T07:22:02.897Z,25.88
2022-12-23T07:23:02.909Z,25.94
2022-12-23T07:24:02.895Z,25.91
2022-12-23T07:25:02.927Z,25.91
2022-12-23T07:26:02.905Z,25.99
2022-12-23T07:27:02.907Z,25.97
2022-12-23T07:28:02.894Z,26.01
2022-12-23T07:29:02.894Z,25.99
2022-12-23T07:30:02.892Z,25.99
2022-12-23T07:31:02.932Z,25.94
2022-12-23T07:32:02.932Z,26.02
2022-12-23T07:33:02.893Z,25.98
2022-12-23T07:34:02.908Z,25.91
2022-12-23T07:35:02.899Z,25.97
2022-12-23T07:36:02.892Z,25.94
2022-12-23T07:37:02.889Z,25.99
2022-12-23T07:38:02.883Z,26.01
2022-12-23T07:39:02.889Z,25.95
2022-12-23T07:40:08.277Z,26.02
2022-12-23T07:41:02.902Z,26.02
2022-12-23T07:42:33.822Z,26.01
2022-12-23T07:43:02.883Z,26.05
2022-12-23T07:44:02.885Z,26.09
2022-12-23T07:45:02.883Z,26.05
2022-12-23T07:46:02.925Z,26.01
2022-12-23T07:47:02.885Z,26.02
2022-12-23T07:48:02.990Z,25.95
2022-12-23T07:49:02.891Z,26.05
2022-12-23T07:50:02.908Z,25.97
2022-12-23T07:51:02.887Z,25.95
2022-12-23T07:52:02.872Z,25.97
2022-12-23T07:53:02.877Z,26.01
2022-12-23T07:54:02.873Z,26.01
2022-12-23T07:55:02.878Z,25.98
2022-12-23T07:56:02.875Z,25.95
2022-12-23T07:57:02.879Z,26.01
2022-12-23T07:58:02.879Z,26.02
2022-12-23T07:59:02.900Z,26.10
2022-12-23T08:00:02.868Z,26.06
2022-12-23T08:01:02.973Z,26.02
2022-12-23T08:02:03.103Z,26.07
2022-12-23T08:03:03.031Z,26.06
2022-12-23T08:04:02.864Z,26.10
2022-12-23T08:05:02.921Z,26.10
2022-12-23T08:06:02.889Z,26.10
2022-12-23T08:07:02.869Z,26.12
2022-12-23T08:08:02.879Z,26.07
2022-12-23T08:09:02.875Z,26.15
2022-12-23T08:10:02.864Z,26.10
2022-12-23T08:11:02.873Z,26.13
2022-12-23T08:12:02.868Z,26.12
2022-12-23T08:13:02.872Z,26.10
2022-12-23T08:14:02.870Z,26.12
2022-12-23T08:15:02.879Z,26.09
2022-12-23T08:16:02.857Z,26.10
2022-12-23T08:17:02.977Z,26.12
2022-12-23T08:18:02.868Z,26.09
2022-12-23T08:19:02.853Z,26.13
2022-12-23T08:20:02.858Z,26.13
2022-12-23T08:21:02.870Z,26.15
2022-12-23T08:22:02.884Z,26.15
2022-12-23T08:23:02.852Z,26.10
2022-12-23T08:24:02.855Z,26.13
2022-12-23T08:25:02.872Z,26.21
2022-12-23T08:26:02.858Z,26.10
2022-12-23T08:27:02.849Z,26.13
2022-12-23T08:28:02.868Z,26.15
2022-12-23T08:29:02.847Z,26.10
2022-12-23T08:30:02.864Z,26.12
2022-12-23T08:31:02.963Z,26.10
2022-12-23T08:32:02.860Z,26.12
2022-12-23T08:33:02.845Z,26.13
2022-12-23T08:34:02.852Z,26.12
2022-12-23T08:35:02.867Z,26.17
2022-12-23T08:36:02.851Z,26.10
2022-12-23T08:37:02.849Z,26.10
2022-12-23T08:38:02.901Z,26.10
2022-12-23T08:39:02.839Z,26.13
2022-12-23T08:40:02.847Z,26.15
2022-12-23T08:41:02.859Z,26.13
2022-12-23T08:42:02.851Z,26.12
2022-12-23T08:43:02.838Z,26.13
2022-12-23T08:44:02.844Z,26.12
2022-12-23T08:45:02.844Z,26.05
2022-12-23T08:46:02.894Z,26.15
2022-12-23T08:47:02.865Z,26.10
2022-12-23T08:48:02.841Z,26.12
2022-12-23T08:49:02.835Z,26.12
2022-12-23T08:50:02.840Z,26.10
2022-12-23T08:51:02.832Z,26.12
2022-12-23T08:52:02.840Z,26.10
2022-12-23T08:53:02.882Z,26.13
2022-12-23T08:54:02.884Z,26.12
2022-12-23T08:55:02.837Z,26.10
2022-12-23T08:56:02.838Z,26.12
2022-12-23T08:57:02.830Z,26.09
2022-12-23T08:58:02.838Z,26.13
2022-12-23T08:59:02.827Z,26.09
2022-12-23T09:00:02.836Z,26.09
2022-12-23T09:01:02.860Z,26.10
2022-12-23T09:02:03.084Z,26.12
2022-12-23T09:03:02.973Z,26.12
2022-12-23T09:04:03.009Z,26.13
2022-12-23T09:05:02.832Z,26.10
2022-12-23T09:06:02.834Z,26.10
2022-12-23T09:07:02.827Z,26.10
2022-12-23T09:08:02.829Z,26.10
2022-12-23T09:09:02.824Z,26.09
2022-12-23T09:10:02.848Z,26.10
2022-12-23T09:11:02.820Z,26.12
2022-12-23T09:12:02.828Z,26.09
2022-12-23T09:13:02.920Z,26.10
2022-12-23T09:14:02.834Z,26.12
2022-12-23T09:15:02.835Z,26.18
2022-12-23T09:16:02.905Z,26.10
2022-12-23T09:17:02.814Z,26.13
2022-12-23T09:18:02.831Z,26.12
2022-12-23T09:19:02.827Z,26.09
2022-12-23T09:20:02.821Z,26.10
2022-12-23T09:21:02.830Z,26.15
2022-12-23T09:22:02.825Z,26.10
2022-12-23T09:23:02.814Z,26.09
2022-12-23T09:24:02.818Z,26.09
2022-12-23T09:25:05.226Z,26.12
2022-12-23T09:26:02.853Z,26.17
2022-12-23T09:27:02.812Z,26.10
2022-12-23T09:28:02.819Z,26.06
2022-12-23T09:29:02.817Z,26.06
2022-12-23T09:30:02.835Z,26.09
2022-12-23T09:31:02.874Z,26.12
2022-12-23T09:32:02.820Z,26.15
2022-12-23T09:33:02.833Z,26.10
2022-12-23T09:34:02.815Z,26.10
2022-12-23T09:35:02.806Z,26.05
2022-12-23T09:36:02.812Z,26.10
2022-12-23T09:37:02.806Z,26.13
2022-12-23T09:38:02.814Z,26.12
2022-12-23T09:39:02.822Z,26.06
2022-12-23T09:40:02.811Z,26.15
2022-12-23T09:41:02.806Z,26.15
2022-12-23T09:42:02.835Z,26.07
2022-12-23T09:43:02.803Z,26.06
2022-12-23T09:44:02.813Z,26.13
2022-12-23T09:45:02.804Z,26.15
2022-12-23T09:46:02.860Z,26.12
2022-12-23T09:47:02.862Z,26.02
2022-12-23T09:48:02.805Z,26.12
2022-12-23T09:49:02.811Z,26.09
2022-12-23T09:50:02.806Z,26.05
2022-12-23T09:51:02.798Z,26.12
2022-12-23T09:52:02.804Z,26.09
2022-12-23T09:53:02.802Z,26.09
2022-12-23T09:54:02.806Z,26.09
2022-12-23T09:55:02.797Z,26.01
2022-12-23T09:56:02.804Z,26.13
2022-12-23T09:57:02.789Z,26.06
2022-12-23T09:58:02.837Z,26.06
2022-12-23T09:59:02.809Z,26.02
2022-12-23T10:00:02.799Z,26.02
2022-12-23T10:01:02.799Z,26.12
2022-12-23T10:02:02.903Z,26.15
2022-12-23T10:03:03.083Z,26.06
2022-12-23T10:04:02.863Z,26.13
2022-12-23T10:05:02.810Z,26.02
2022-12-23T10:06:02.794Z,26.07
2022-12-23T10:07:03.325Z,26.12
2022-12-23T10:08:02.799Z,26.18
2022-12-23T10:09:02.782Z,26.13
2022-12-23T10:10:02.800Z,26.09
2022-12-23T10:11:02.781Z,26.07
2022-12-23T10:12:02.793Z,26.10
2022-12-23T10:13:02.789Z,26.07
2022-12-23T10:14:02.827Z,26.09
2022-12-23T10:15:02.792Z,26.07
2022-12-23T10:16:02.857Z,26.10
2022-12-23T10:17:02.779Z,25.98
2022-12-23T10:18:02.799Z,26.02
2022-12-23T10:19:02.778Z,26.10
2022-12-23T10:20:02.804Z,26.13
2022-12-23T10:21:02.783Z,26.10
2022-12-23T10:22:02.781Z,26.06
2022-12-23T10:23:02.779Z,26.02
2022-12-23T10:24:02.785Z,26.01
2022-12-23T10:25:02.775Z,26.06
2022-12-23T10:26:02.788Z,26.01
2022-12-23T10:27:02.776Z,26.07
2022-12-23T10:28:02.783Z,26.10
2022-12-23T10:29:02.774Z,26.10
2022-12-23T10:30:19.879Z,26.01
2022-12-23T10:31:30.914Z,26.07
2022-12-23T10:32:02.913Z,26.09
2022-12-23T10:33:02.769Z,25.97
2022-12-23T10:34:02.775Z,26.05
2022-12-23T10:35:02.780Z,26.09
2022-12-23T10:36:02.828Z,26.05
2022-12-23T10:37:02.881Z,26.02
2022-12-23T10:38:02.776Z,26.06
2022-12-23T10:39:02.765Z,25.99
2022-12-23T10:40:02.782Z,26.02
2022-12-23T10:41:08.928Z,25.99
2022-12-23T10:42:02.771Z,25.98
2022-12-23T10:43:02.773Z,26.05
2022-12-23T10:44:02.766Z,25.99
2022-12-23T10:45:02.772Z,26.10
2022-12-23T10:46:02.793Z,26.09
2022-12-23T10:47:02.832Z,25.99
2022-12-23T10:48:04.943Z,26.15
2022-12-23T10:49:02.762Z,26.18
2022-12-23T10:50:02.785Z,26.15
2022-12-23T10:51:02.758Z,26.09
2022-12-23T10:52:02.762Z,26.10
2022-12-23T10:53:02.755Z,25.98
2022-12-23T10:54:02.770Z,26.09
2022-12-23T10:55:02.781Z,26.13
2022-12-23T10:56:02.776Z,26.09
2022-12-23T10:57:02.761Z,26.13
2022-12-23T10:58:02.768Z,26.10
2022-12-23T10:59:02.754Z,26.02
2022-12-23T11:00:02.757Z,26.12
2022-12-23T11:01:04.757Z,26.12
2022-12-23T11:02:03.014Z,26.10
2022-12-23T11:03:02.969Z,26.09
2022-12-23T11:04:02.755Z,26.15
2022-12-23T11:05:02.752Z,26.07
2022-12-23T11:06:02.794Z,26.06
2022-12-23T11:07:34.424Z,26.12
2022-12-23T11:08:02.749Z,26.07
2022-12-23T11:09:02.746Z,26.05
2022-12-23T11:10:02.765Z,26.13
2022-12-23T11:11:02.742Z,26.15
2022-12-23T11:12:02.764Z,26.15
2022-12-23T11:13:02.758Z,26.06
2022-12-23T11:14:02.748Z,26.13
2022-12-23T11:15:02.746Z,26.12
2022-12-23T11:16:02.805Z,26.02
2022-12-23T11:17:02.742Z,26.07
2022-12-23T11:18:02.829Z,26.09
2022-12-23T11:19:02.737Z,26.07
2022-12-23T11:20:02.743Z,26.10
2022-12-23T11:21:02.738Z,26.15
2022-12-23T11:22:02.751Z,26.05
2022-12-23T11:23:02.775Z,26.12
2022-12-23T11:24:02.748Z,26.06
2022-12-23T11:25:02.735Z,26.09
2022-12-23T11:26:02.741Z,26.13
2022-12-23T11:27:02.731Z,26.13
2022-12-23T11:28:02.739Z,26.10
2022-12-23T11:29:02.733Z,26.09
2022-12-23T11:30:02.739Z,26.10
2022-12-23T11:31:02.728Z,26.07
2022-12-23T11:32:02.821Z,26.13
2022-12-23T11:33:02.729Z,26.17
2022-12-23T11:34:02.786Z,26.17
2022-12-23T11:35:02.757Z,26.10
2022-12-23T11:36:02.738Z,26.15
2022-12-23T11:37:07.224Z,26.06
2022-12-23T11:38:02.731Z,26.12
2022-12-23T11:39:02.729Z,26.12
2022-12-23T11:40:02.773Z,26.13
2022-12-23T11:41:02.729Z,26.13
2022-12-23T11:42:02.749Z,26.13
2022-12-23T11:43:02.729Z,26.10
2022-12-23T11:44:02.730Z,26.20
2022-12-23T11:45:02.721Z,26.15
2022-12-23T11:46:02.756Z,26.12
2022-12-23T11:47:02.722Z,26.25
2022-12-23T11:48:02.733Z,26.09
2022-12-23T11:49:02.724Z,26.12
2022-12-23T11:50:02.761Z,26.10
2022-12-23T11:51:02.724Z,26.17
2022-12-23T11:52:02.727Z,26.12
2022-12-23T11:53:02.723Z,26.10
2022-12-23T11:54:02.769Z,26.06
2022-12-23T11:55:02.712Z,26.17
2022-12-23T11:56:02.728Z,26.20
2022-12-23T11:57:02.770Z,26.17
2022-12-23T11:58:02.737Z,26.06
2022-12-23T11:59:02.726Z,26.06
2022-12-23T12:00:02.757Z,26.20
2022-12-23T12:01:02.711Z,26.15
2022-12-23T12:02:02.793Z,26.17
2022-12-23T12:03:02.786Z,26.12
2022-12-23T12:04:02.919Z,26.10
2022-12-23T12:05:02.715Z,26.20
2022-12-23T12:06:02.759Z,26.06
2022-12-23T12:07:02.709Z,26.10
2022-12-23T12:08:02.720Z,26.17
2022-12-23T12:09:02.708Z,26.15
2022-12-23T12:10:02.716Z,26.12
2022-12-23T12:11:02.732Z,26.13
2022-12-23T12:12:02.716Z,26.17
2022-12-23T12:13:02.863Z,26.17
2022-12-23T12:14:02.714Z,26.12
2022-12-23T12:15:02.720Z,26.06
2022-12-23T12:16:02.710Z,26.12
2022-12-23T12:17:02.795Z,26.10
2022-12-23T12:18:02.711Z,26.10
2022-12-23T12:19:02.706Z,26.17
2022-12-23T12:20:02.708Z,26.15
2022-12-23T12:21:02.701Z,26.10
2022-12-23T12:22:02.738Z,26.23
2022-12-23T12:23:02.699Z,26.13
2022-12-23T12:24:17.633Z,26.13
2022-12-23T12:25:02.716Z,26.23
2022-12-23T12:26:02.752Z,26.13
2022-12-23T12:27:02.695Z,26.10
2022-12-23T12:28:02.700Z,26.13
2022-12-23T12:29:02.698Z,26.12
2022-12-23T12:30:08.519Z,26.13
2022-12-23T12:31:02.819Z,26.10
2022-12-23T12:32:02.711Z,26.13
2022-12-23T12:33:02.703Z,26.13
2022-12-23T12:34:02.697Z,26.17
2022-12-23T12:35:02.697Z,26.15
2022-12-23T12:36:05.442Z,26.12
2022-12-23T12:37:02.776Z,26.12
2022-12-23T12:38:02.737Z,26.13
2022-12-23T12:39:02.704Z,26.12
2022-12-23T12:40:02.691Z,26.13
2022-12-23T12:41:02.702Z,26.09
2022-12-23T12:42:05.841Z,26.13
2022-12-23T12:43:02.701Z,26.09
2022-12-23T12:44:02.686Z,26.09
2022-12-23T12:45:02.690Z,26.15
2022-12-23T12:46:02.772Z,26.13
2022-12-23T12:47:15.971Z,26.13
2022-12-23T12:48:12.829Z,26.10
2022-12-23T12:49:02.689Z,26.12
2022-12-23T12:50:02.682Z,26.12
2022-12-23T12:51:02.716Z,26.10
2022-12-23T12:52:02.683Z,26.10